createdAt,value
2018-12-31T00:00:47.208Z,8.13
2018-12-31T00:03:50.498Z,6.80
2018-12-31T00:06:53.404Z,9.33
2018-12-31T00:09:57.088Z,5.17
2018-12-31T00:12:59.985Z,8.40
2018-12-31T00:16:03.007Z,8.37
2018-12-31T00:19:06.038Z,11.90
2018-12-31T00:22:09.335Z,8.07
2018-12-31T00:25:12.537Z,11.87
2018-12-31T00:28:15.460Z,13.37
2018-12-31T00:31:19.030Z,12.87
2018-12-31T00:34:21.983Z,12.63
2018-12-31T00:37:25.318Z,12.07
2018-12-31T00:40:29.342Z,13.00
2018-12-31T00:43:33.252Z,13.17
2018-12-31T00:46:36.529Z,10.40
2018-12-31T00:49:40.151Z,13.70
2018-12-31T00:52:43.739Z,14.83
2018-12-31T00:55:46.659Z,11.07
2018-12-31T00:58:49.842Z,13.07
2018-12-31T01:01:52.761Z,15.63
2018-12-31T01:04:55.983Z,15.60
2018-12-31T01:07:58.896Z,15.93
2018-12-31T01:11:02.501Z,16.00
2018-12-31T01:14:05.771Z,17.80
2018-12-31T01:17:08.690Z,19.93
2018-12-31T01:20:11.596Z,14.53
2018-12-31T01:23:14.509Z,13.40
2018-12-31T01:26:17.723Z,16.70
2018-12-31T01:29:20.666Z,13.20
2018-12-31T01:32:23.579Z,16.60
2018-12-31T01:35:26.496Z,14.67
2018-12-31T01:38:29.689Z,16.67
2018-12-31T01:41:32.952Z,16.83
2018-12-31T01:44:36.280Z,17.70
2018-12-31T01:47:39.889Z,15.10
2018-12-31T01:50:55.108Z,21.57
2018-12-31T01:54:18.152Z,17.57
2018-12-31T01:57:33.632Z,16.30
2018-12-31T02:00:49.457Z,17.30
2018-12-31T02:04:12.144Z,25.90
2018-12-31T02:07:28.124Z,21.77
2018-12-31T02:10:44.853Z,24.57
2018-12-31T02:14:07.244Z,27.27
2018-12-31T02:17:30.550Z,24.53
2018-12-31T02:20:46.158Z,23.33
2018-12-31T02:24:08.516Z,21.67
2018-12-31T02:27:23.608Z,103.50
2018-12-31T02:30:45.985Z,28.73
2018-12-31T02:34:01.236Z,30.40
2018-12-31T02:37:16.660Z,21.43
2018-12-31T02:40:39.045Z,19.47
2018-12-31T02:43:54.269Z,14.03
2018-12-31T02:47:09.634Z,12.63
2018-12-31T02:50:32.653Z,15.73
2018-12-31T02:53:48.644Z,15.00
2018-12-31T02:57:11.371Z,13.67
2018-12-31T03:00:27.163Z,15.97
2018-12-31T03:03:43.296Z,16.80
2018-12-31T03:07:05.674Z,13.03
2018-12-31T03:10:21.356Z,16.57
2018-12-31T03:13:36.968Z,19.80
2018-12-31T03:16:59.615Z,16.67
2018-12-31T03:20:15.012Z,14.00
2018-12-31T03:23:37.758Z,17.77
2018-12-31T03:26:52.822Z,14.97
2018-12-31T03:30:15.241Z,14.00
2018-12-31T03:33:30.783Z,10.77
2018-12-31T03:36:53.140Z,14.20
2018-12-31T03:40:08.754Z,14.90
2018-12-31T03:43:31.424Z,11.70
2018-12-31T03:46:47.276Z,14.13
2018-12-31T03:50:09.950Z,15.10
2018-12-31T03:53:25.723Z,18.97
2018-12-31T03:56:50.400Z,19.50
2018-12-31T04:00:25.968Z,20.83
2018-12-31T04:03:48.746Z,24.10
2018-12-31T04:07:04.224Z,28.23
2018-12-31T04:10:26.600Z,16.10
2018-12-31T04:13:42.468Z,22.00
2018-12-31T04:17:04.903Z,26.63
2018-12-31T04:20:20.940Z,27.57
2018-12-31T04:23:43.568Z,36.03
2018-12-31T04:26:59.454Z,35.23
2018-12-31T04:30:16.031Z,36.63
2018-12-31T04:33:30.992Z,21.30
2018-12-31T04:36:53.392Z,41.47
2018-12-31T04:40:08.960Z,28.00
2018-12-31T04:43:31.323Z,36.10
2018-12-31T04:46:46.995Z,31.27
2018-12-31T04:50:09.378Z,34.70
2018-12-31T04:53:25.344Z,28.80
2018-12-31T04:56:48.375Z,24.93
2018-12-31T05:00:04.408Z,46.10
2018-12-31T05:06:55.498Z,35.47
2018-12-31T05:10:18.249Z,40.30
2018-12-31T05:13:35.102Z,44.77
2018-12-31T05:16:57.463Z,60.73
2018-12-31T05:20:01.088Z,51.47
2018-12-31T05:23:23.780Z,36.90
2018-12-31T05:26:39.529Z,35.57
2018-12-31T05:29:54.670Z,40.27
2018-12-31T05:33:10.273Z,31.40
2018-12-31T05:36:32.958Z,42.70
2018-12-31T05:39:48.630Z,43.27
2018-12-31T05:43:11.033Z,47.53
2018-12-31T05:46:26.390Z,47.67
2018-12-31T05:49:48.784Z,40.37
2018-12-31T05:53:04.904Z,38.80
2018-12-31T05:56:27.279Z,47.63
2018-12-31T05:59:42.952Z,38.67
2018-12-31T06:03:05.378Z,37.77
2018-12-31T06:06:20.980Z,50.27
2018-12-31T06:09:43.355Z,50.77
2018-12-31T06:12:58.817Z,40.23
2018-12-31T06:16:21.523Z,43.17
2018-12-31T06:19:37.570Z,45.73
2018-12-31T06:22:59.951Z,42.93
2018-12-31T06:26:15.251Z,41.47
2018-12-31T06:29:28.722Z,46.63
2018-12-31T06:32:45.562Z,48.17
2018-12-31T06:36:08.234Z,49.13
2018-12-31T06:39:24.325Z,46.83
2018-12-31T06:42:47.012Z,41.93
2018-12-31T06:46:02.712Z,54.97
2018-12-31T06:49:26.156Z,49.10
2018-12-31T06:52:41.220Z,37.83
2018-12-31T06:56:03.617Z,45.40
2018-12-31T06:59:18.672Z,39.93
2018-12-31T07:02:41.041Z,47.03
2018-12-31T07:05:56.449Z,37.07
2018-12-31T07:09:19.454Z,46.27
2018-12-31T07:12:34.944Z,70.00
2018-12-31T07:15:57.402Z,36.40
2018-12-31T07:19:12.691Z,51.40
2018-12-31T07:22:35.089Z,44.67
2018-12-31T07:25:51.205Z,40.83
2018-12-31T07:29:07.330Z,40.90
2018-12-31T07:32:23.140Z,46.13
2018-12-31T07:35:38.768Z,43.80
2018-12-31T07:39:01.405Z,37.30
2018-12-31T07:42:18.550Z,43.97
2018-12-31T07:45:40.931Z,40.83
2018-12-31T07:48:56.400Z,38.63
2018-12-31T07:52:12.423Z,33.63
2018-12-31T07:55:35.238Z,45.13
2018-12-31T07:58:50.799Z,50.73
2018-12-31T08:02:13.558Z,38.57
2018-12-31T08:05:29.462Z,34.27
2018-12-31T08:08:51.828Z,35.07
2018-12-31T08:12:08.277Z,36.73
2018-12-31T08:15:30.673Z,48.07
2018-12-31T08:18:46.337Z,33.03
2018-12-31T08:22:01.879Z,31.43
2018-12-31T08:25:24.241Z,31.70
2018-12-31T08:28:40.415Z,32.23
2018-12-31T08:32:02.846Z,28.70
2018-12-31T08:35:18.546Z,24.47
2018-12-31T08:38:33.577Z,28.30
2018-12-31T08:45:32.089Z,29.90
2018-12-31T08:48:47.220Z,31.23
2018-12-31T08:52:09.631Z,36.17
2018-12-31T08:55:24.822Z,25.17
2018-12-31T08:58:40.495Z,29.20
2018-12-31T09:02:03.230Z,29.53
2018-12-31T09:05:18.687Z,29.23
2018-12-31T09:08:41.400Z,33.73
2018-12-31T09:11:57.117Z,28.63
2018-12-31T09:15:12.523Z,25.73
2018-12-31T09:18:34.909Z,35.00
2018-12-31T09:21:50.090Z,40.60
2018-12-31T09:25:05.289Z,39.80
2018-12-31T09:28:20.568Z,36.90
2018-12-31T09:31:43.322Z,38.23
2018-12-31T09:34:58.369Z,40.10
2018-12-31T09:38:20.765Z,34.63
2018-12-31T09:41:36.218Z,26.20
2018-12-31T09:44:58.626Z,27.00
2018-12-31T09:48:13.714Z,40.83
2018-12-31T09:51:36.127Z,28.27
2018-12-31T09:54:51.529Z,32.73
2018-12-31T09:58:13.897Z,140.90
2018-12-31T10:01:29.457Z,28.97
2018-12-31T10:04:51.830Z,33.17
2018-12-31T10:08:07.578Z,37.63
2018-12-31T10:11:30.646Z,27.33
2018-12-31T10:14:46.078Z,35.90
2018-12-31T10:18:01.259Z,35.17
2018-12-31T10:21:23.656Z,29.20
2018-12-31T10:24:39.341Z,29.87
2018-12-31T10:27:54.831Z,39.23
2018-12-31T10:31:17.185Z,32.73
2018-12-31T10:34:35.020Z,37.63
2018-12-31T10:37:57.812Z,25.33
2018-12-31T10:41:13.301Z,28.60
2018-12-31T10:44:29.194Z,29.33
2018-12-31T10:47:52.293Z,27.10
2018-12-31T10:51:07.847Z,56.23
2018-12-31T10:54:23.268Z,26.07
2018-12-31T10:57:45.781Z,439.10
2018-12-31T11:01:01.318Z,56.30
2018-12-31T11:04:16.741Z,32.40
2018-12-31T11:07:39.190Z,26.80
2018-12-31T11:10:55.064Z,35.40
2018-12-31T11:14:11.014Z,26.60
2018-12-31T11:17:34.784Z,50.67
2018-12-31T11:20:50.297Z,50.30
2018-12-31T11:24:05.396Z,37.60
2018-12-31T11:27:20.684Z,35.27
2018-12-31T11:34:46.543Z,35.97
2018-12-31T11:38:08.930Z,34.33
2018-12-31T11:41:24.509Z,48.80
2018-12-31T11:44:39.720Z,37.70
2018-12-31T11:48:02.141Z,56.93
2018-12-31T11:51:17.533Z,38.30
2018-12-31T11:54:20.839Z,29.43
2018-12-31T11:57:24.028Z,36.57
2018-12-31T12:00:39.080Z,31.10
2018-12-31T12:04:01.790Z,30.93
2018-12-31T12:07:17.541Z,29.70
2018-12-31T12:10:20.808Z,41.83
2018-12-31T12:13:35.963Z,38.33
2018-12-31T12:16:58.401Z,31.53
2018-12-31T12:20:13.675Z,37.40
2018-12-31T12:23:36.364Z,46.33
2018-12-31T12:26:51.524Z,41.57
2018-12-31T12:30:14.418Z,32.07
2018-12-31T12:33:51.359Z,40.63
2018-12-31T12:37:13.750Z,42.77
2018-12-31T12:40:29.086Z,39.47
2018-12-31T12:43:51.458Z,92.03
2018-12-31T12:47:08.323Z,39.03
2018-12-31T12:50:31.274Z,38.43
2018-12-31T12:53:55.165Z,41.53
2018-12-31T12:57:17.764Z,66.60
2018-12-31T13:00:33.554Z,39.90
2018-12-31T13:03:56.588Z,141.07
2018-12-31T13:07:12.187Z,57.00
2018-12-31T13:10:35.016Z,38.43
2018-12-31T13:13:50.562Z,46.67
2018-12-31T13:17:12.977Z,33.10
2018-12-31T13:20:28.204Z,39.60
2018-12-31T13:23:50.711Z,40.50
2018-12-31T13:27:06.651Z,41.93
2018-12-31T13:30:29.374Z,37.50
2018-12-31T13:33:45.274Z,35.80
2018-12-31T13:37:07.689Z,34.60
2018-12-31T13:40:23.698Z,32.80
2018-12-31T13:43:39.969Z,44.83
2018-12-31T13:47:02.730Z,44.20
2018-12-31T13:50:18.244Z,36.60
2018-12-31T13:53:34.455Z,32.17
2018-12-31T13:56:56.817Z,38.33
2018-12-31T14:00:11.891Z,35.73
2018-12-31T14:03:34.744Z,27.87
2018-12-31T14:06:50.517Z,39.33
2018-12-31T14:10:13.699Z,31.13
2018-12-31T14:13:29.515Z,31.63
2018-12-31T14:16:51.973Z,42.97
2018-12-31T14:20:07.797Z,43.33
2018-12-31T14:23:30.186Z,42.43
2018-12-31T14:26:45.946Z,37.40
2018-12-31T14:30:01.541Z,37.07
2018-12-31T14:33:24.215Z,32.40
2018-12-31T14:36:39.727Z,39.53
2018-12-31T14:40:03.239Z,42.13
2018-12-31T14:43:18.266Z,48.97
2018-12-31T14:46:34.071Z,59.40
2018-12-31T14:49:56.829Z,47.10
2018-12-31T14:53:12.607Z,52.57
2018-12-31T14:56:27.896Z,36.20
2018-12-31T14:59:50.277Z,50.37
2018-12-31T15:03:05.712Z,34.77
2018-12-31T15:06:20.832Z,29.10
2018-12-31T15:09:43.191Z,48.13
2018-12-31T15:13:00.242Z,32.47
2018-12-31T15:16:22.624Z,36.73
2018-12-31T15:19:37.704Z,31.40
2018-12-31T15:22:53.816Z,27.23
2018-12-31T15:26:16.516Z,38.33
2018-12-31T15:29:31.900Z,29.83
2018-12-31T15:32:47.275Z,52.43
2018-12-31T15:36:09.642Z,29.03
2018-12-31T15:39:24.878Z,31.83
2018-12-31T15:42:47.667Z,39.77
2018-12-31T15:46:03.719Z,42.33
2018-12-31T15:49:26.106Z,41.80
2018-12-31T15:52:41.439Z,41.10
2018-12-31T15:56:03.815Z,48.83
2018-12-31T15:59:19.015Z,51.47
2018-12-31T16:02:41.784Z,45.30
2018-12-31T16:05:57.272Z,40.73
2018-12-31T16:09:20.695Z,67.20
2018-12-31T16:12:36.322Z,59.80
2018-12-31T16:15:52.253Z,58.37
2018-12-31T16:19:15.249Z,56.17
2018-12-31T16:22:39.208Z,26.00
2018-12-31T16:25:55.057Z,70.87
2018-12-31T16:29:10.187Z,60.00
2018-12-31T16:32:25.367Z,98.03
2018-12-31T16:35:47.752Z,60.03
2018-12-31T16:39:06.039Z,54.80
2018-12-31T16:42:21.247Z,50.70
2018-12-31T16:45:43.995Z,75.63
2018-12-31T16:48:59.366Z,54.80
2018-12-31T16:52:22.769Z,60.07
2018-12-31T16:55:37.784Z,62.40
2018-12-31T16:59:00.161Z,71.57
2018-12-31T17:02:15.417Z,66.70
2018-12-31T17:05:38.373Z,56.70
2018-12-31T17:09:15.925Z,56.70
2018-12-31T17:12:38.312Z,42.60
2018-12-31T17:15:53.874Z,62.17
2018-12-31T17:19:09.365Z,49.07
2018-12-31T17:22:32.216Z,61.03
2018-12-31T17:25:47.509Z,50.17
2018-12-31T17:29:02.980Z,54.03
2018-12-31T17:32:25.357Z,41.17
2018-12-31T17:35:40.870Z,50.00
2018-12-31T17:38:56.245Z,59.07
2018-12-31T17:42:18.600Z,55.30
2018-12-31T17:45:34.074Z,62.73
2018-12-31T17:48:56.755Z,66.83
2018-12-31T17:52:12.483Z,61.83
2018-12-31T17:55:27.622Z,50.57
2018-12-31T17:58:50.226Z,87.07
2018-12-31T18:02:14.543Z,85.47
2018-12-31T18:05:37.143Z,112.47
2018-12-31T18:09:14.420Z,113.63
2018-12-31T18:12:37.146Z,80.17
2018-12-31T18:15:52.829Z,109.67
2018-12-31T18:19:08.812Z,49.60
2018-12-31T18:22:31.483Z,41.20
2018-12-31T18:25:55.465Z,50.00
2018-12-31T18:29:18.241Z,41.03
2018-12-31T18:32:33.899Z,48.07
2018-12-31T18:35:56.288Z,48.87
2018-12-31T18:39:11.840Z,50.87
2018-12-31T18:42:34.213Z,56.53
2018-12-31T18:45:49.548Z,45.17
2018-12-31T18:49:11.932Z,53.67
2018-12-31T18:52:26.976Z,48.03
2018-12-31T18:55:42.564Z,48.57
2018-12-31T18:59:04.950Z,63.53
2018-12-31T19:02:20.807Z,48.33
2018-12-31T19:05:36.010Z,82.23
2018-12-31T19:08:58.394Z,51.17
2018-12-31T19:12:13.492Z,42.13
2018-12-31T19:15:36.512Z,37.87
2018-12-31T19:18:52.648Z,41.73
2018-12-31T19:22:08.663Z,60.83
2018-12-31T19:25:23.796Z,36.67
2018-12-31T19:28:38.990Z,48.47
2018-12-31T19:31:54.832Z,50.90
2018-12-31T19:35:17.542Z,42.23
2018-12-31T19:38:32.996Z,36.57
2018-12-31T19:41:48.228Z,34.33
2018-12-31T19:45:10.883Z,36.00
2018-12-31T19:48:26.869Z,44.40
2018-12-31T19:51:49.244Z,27.50
2018-12-31T19:55:06.984Z,30.20
2018-12-31T19:58:22.485Z,38.90
2018-12-31T20:01:45.190Z,36.93
2018-12-31T20:05:01.688Z,24.57
2018-12-31T20:08:24.064Z,32.80
2018-12-31T20:11:37.704Z,28.10
2018-12-31T20:18:16.473Z,30.07
2018-12-31T20:21:39.170Z,25.77
2018-12-31T20:24:54.414Z,33.70
2018-12-31T20:28:16.876Z,43.80
2018-12-31T20:31:32.521Z,34.50
2018-12-31T20:38:36.724Z,25.77
2018-12-31T20:41:59.113Z,29.60
2018-12-31T20:45:14.645Z,26.67
2018-12-31T20:48:37.362Z,32.17
2018-12-31T20:51:52.980Z,39.23
2018-12-31T20:55:15.388Z,27.60
2018-12-31T20:58:30.543Z,50.13
2018-12-31T21:01:53.745Z,31.47
2018-12-31T21:05:31.208Z,47.60
2018-12-31T21:08:54.145Z,42.37
2018-12-31T21:12:09.654Z,41.47
2018-12-31T21:15:32.355Z,75.10
2018-12-31T21:18:48.132Z,108.07
2018-12-31T21:22:03.418Z,52.87
2018-12-31T21:25:25.803Z,109.93
2018-12-31T21:28:41.961Z,48.33
2018-12-31T21:32:04.319Z,50.43
2018-12-31T21:35:19.612Z,42.63
2018-12-31T21:38:41.999Z,50.30
2018-12-31T21:41:59.267Z,25.53
2018-12-31T21:45:15.435Z,36.40
2018-12-31T21:48:38.406Z,33.33
2018-12-31T21:51:54.027Z,30.90
2018-12-31T21:55:16.763Z,34.40
2018-12-31T21:58:32.644Z,37.87
2018-12-31T22:01:47.917Z,42.60
2018-12-31T22:05:10.643Z,47.37
2018-12-31T22:08:26.189Z,36.73
2018-12-31T22:11:41.756Z,32.00
2018-12-31T22:15:07.345Z,31.70
2018-12-31T22:18:22.962Z,40.03
2018-12-31T22:21:38.397Z,35.30
2018-12-31T22:24:53.857Z,26.47
2018-12-31T22:28:09.541Z,44.37
2018-12-31T22:31:32.223Z,30.30
2018-12-31T22:34:48.381Z,28.97
2018-12-31T22:38:03.563Z,30.07
2018-12-31T22:41:25.949Z,34.67
2018-12-31T22:44:41.467Z,34.63
2018-12-31T22:47:56.637Z,37.67
2018-12-31T22:51:19.039Z,29.77
2018-12-31T22:54:34.142Z,38.50
2018-12-31T22:57:56.838Z,36.67
2018-12-31T23:01:12.039Z,41.30
2018-12-31T23:04:35.092Z,64.70
2018-12-31T23:07:50.465Z,340.40
2018-12-31T23:11:12.832Z,400.17
2018-12-31T23:14:28.647Z,406.40
2018-12-31T23:17:51.348Z,415.97
2018-12-31T23:21:06.644Z,641.07
2018-12-31T23:24:29.362Z,481.37
2018-12-31T23:27:45.526Z,328.90
2018-12-31T23:31:09.257Z,299.00
2018-12-31T23:34:24.801Z,155.97
2018-12-31T23:37:47.184Z,159.10
2018-12-31T23:41:02.132Z,139.23
2018-12-31T23:44:25.860Z,146.27
2018-12-31T23:47:41.572Z,138.80
2018-12-31T23:51:04.322Z,147.83
2018-12-31T23:54:28.096Z,124.97
2018-12-31T23:57:50.703Z,124.73
